sensor_id;sensor_type;location;lat;lon;timestamp;pressure;altitude;pressure_sealevel;temperature;humidity
19831;BME280;10076;52.008;4.708;2022-08-21T00:01:14;101715.28;;;19.23;100.00
19831;BME280;10076;52.008;4.708;2022-08-21T00:03:41;101716.09;;;19.14;100.00
19831;BME280;10076;52.008;4.708;2022-08-21T00:06:06;101724.00;;;19.25;100.00
19831;BME280;10076;52.008;4.708;2022-08-21T00:08:32;101719.66;;;19.15;100.00
19831;BME280;10076;52.008;4.708;2022-08-21T00:10:57;101722.31;;;19.15;100.00
19831;BME280;10076;52.008;4.708;2022-08-21T00:13:23;101717.81;;;19.15;100.00
19831;BME280;10076;52.008;4.708;2022-08-21T00:15:49;101714.41;;;19.32;100.00
19831;BME280;10076;52.008;4.708;2022-08-21T00:18:15;101705.81;;;19.19;100.00
19831;BME280;10076;52.008;4.708;2022-08-21T00:20:43;101715.69;;;19.28;100.00
19831;BME280;10076;52.008;4.708;2022-08-21T00:23:09;101709.91;;;19.23;100.00
19831;BME280;10076;52.008;4.708;2022-08-21T00:25:35;101704.00;;;19.20;100.00
19831;BME280;10076;52.008;4.708;2022-08-21T00:28:00;101719.50;;;19.16;100.00
19831;BME280;10076;52.008;4.708;2022-08-21T00:30:28;101709.19;;;19.12;100.00
19831;BME280;10076;52.008;4.708;2022-08-21T00:32:55;101707.91;;;19.06;100.00
19831;BME280;10076;52.008;4.708;2022-08-21T00:35:24;101703.53;;;19.05;100.00
19831;BME280;10076;52.008;4.708;2022-08-21T00:37:50;101703.53;;;19.05;100.00
19831;BME280;10076;52.008;4.708;2022-08-21T00:40:19;101697.38;;;19.24;100.00
19831;BME280;10076;52.008;4.708;2022-08-21T00:42:45;101697.09;;;19.08;100.00
19831;BME280;10076;52.008;4.708;2022-08-21T00:45:11;101702.41;;;18.98;100.00
19831;BME280;10076;52.008;4.708;2022-08-21T00:47:37;101695.50;;;19.05;100.00
19831;BME280;10076;52.008;4.708;2022-08-21T00:50:05;101699.78;;;19.08;100.00
19831;BME280;10076;52.008;4.708;2022-08-21T00:52:32;101695.81;;;19.12;100.00
19831;BME280;10076;52.008;4.708;2022-08-21T00:54:59;101692.53;;;18.99;100.00
19831;BME280;10076;52.008;4.708;2022-08-21T00:57:46;101697.31;;;19.05;100.00
19831;BME280;10076;52.008;4.708;2022-08-21T01:00:17;101698.34;;;18.94;100.00
19831;BME280;10076;52.008;4.708;2022-08-21T01:02:43;101690.16;;;19.05;100.00
19831;BME280;10076;52.008;4.708;2022-08-21T01:05:10;101690.59;;;19.10;100.00
19831;BME280;10076;52.008;4.708;2022-08-21T01:07:35;101705.13;;;19.17;100.00
19831;BME280;10076;52.008;4.708;2022-08-21T01:10:01;101692.31;;;19.21;100.00
19831;BME280;10076;52.008;4.708;2022-08-21T01:12:27;101698.88;;;19.07;100.00
19831;BME280;10076;52.008;4.708;2022-08-21T01:14:52;101695.97;;;19.10;100.00
19831;BME280;10076;52.008;4.708;2022-08-21T01:17:19;101698.75;;;18.99;100.00
19831;BME280;10076;52.008;4.708;2022-08-21T01:19:45;101696.94;;;19.28;100.00
19831;BME280;10076;52.008;4.708;2022-08-21T01:22:11;101696.34;;;18.96;100.00
19831;BME280;10076;52.008;4.708;2022-08-21T01:24:36;101700.28;;;18.92;100.00
19831;BME280;10076;52.008;4.708;2022-08-21T01:27:02;101700.84;;;18.77;100.00
19831;BME280;10076;52.008;4.708;2022-08-21T01:32:33;101702.81;;;18.75;100.00
19831;BME280;10076;52.008;4.708;2022-08-21T01:34:58;101701.13;;;18.83;100.00
19831;BME280;10076;52.008;4.708;2022-08-21T01:37:24;101705.34;;;18.67;100.00
19831;BME280;10076;52.008;4.708;2022-08-21T01:39:49;101693.81;;;18.95;100.00
19831;BME280;10076;52.008;4.708;2022-08-21T01:42:15;101697.75;;;18.81;100.00
19831;BME280;10076;52.008;4.708;2022-08-21T01:44:41;101696.06;;;18.80;100.00
19831;BME280;10076;52.008;4.708;2022-08-21T01:47:11;101704.06;;;18.71;100.00
19831;BME280;10076;52.008;4.708;2022-08-21T01:49:37;101698.56;;;18.63;100.00
19831;BME280;10076;52.008;4.708;2022-08-21T01:52:04;101701.13;;;18.65;100.00
19831;BME280;10076;52.008;4.708;2022-08-21T01:54:30;101693.81;;;18.85;100.00
19831;BME280;10076;52.008;4.708;2022-08-21T01:56:55;101691.56;;;18.72;100.00
19831;BME280;10076;52.008;4.708;2022-08-21T01:59:23;101695.44;;;18.58;100.00
19831;BME280;10076;52.008;4.708;2022-08-21T02:01:48;101687.88;;;18.72;100.00
19831;BME280;10076;52.008;4.708;2022-08-21T02:04:14;101686.22;;;18.72;100.00
19831;BME280;10076;52.008;4.708;2022-08-21T02:06:40;101681.69;;;18.72;100.00
19831;BME280;10076;52.008;4.708;2022-08-21T02:09:08;101679.00;;;18.63;100.00
19831;BME280;10076;52.008;4.708;2022-08-21T02:11:34;101681.41;;;18.66;100.00
19831;BME280;10076;52.008;4.708;2022-08-21T02:14:01;101678.28;;;18.51;100.00
19831;BME280;10076;52.008;4.708;2022-08-21T02:16:26;101669.97;;;18.54;100.00
19831;BME280;10076;52.008;4.708;2022-08-21T02:18:52;101675.19;;;18.56;100.00
19831;BME280;10076;52.008;4.708;2022-08-21T02:21:17;101666.47;;;18.54;100.00
19831;BME280;10076;52.008;4.708;2022-08-21T02:23:43;101664.19;;;18.49;100.00
19831;BME280;10076;52.008;4.708;2022-08-21T02:26:09;101668.56;;;18.50;100.00
19831;BME280;10076;52.008;4.708;2022-08-21T02:28:36;101666.75;;;18.60;100.00
19831;BME280;10076;52.008;4.708;2022-08-21T02:31:02;101674.47;;;18.63;100.00
19831;BME280;10076;52.008;4.708;2022-08-21T02:33:28;101671.66;;;18.55;100.00
19831;BME280;10076;52.008;4.708;2022-08-21T02:35:55;101672.19;;;18.40;100.00
19831;BME280;10076;52.008;4.708;2022-08-21T02:38:28;101675.28;;;18.35;100.00
19831;BME280;10076;52.008;4.708;2022-08-21T02:40:54;101666.97;;;18.29;100.00
19831;BME280;10076;52.008;4.708;2022-08-21T02:43:21;101668.69;;;18.49;100.00
19831;BME280;10076;52.008;4.708;2022-08-21T02:45:48;101669.94;;;18.45;100.00
19831;BME280;10076;52.008;4.708;2022-08-21T02:48:17;101667.03;;;18.57;100.00
19831;BME280;10076;52.008;4.708;2022-08-21T02:50:52;101666.41;;;18.35;100.00
19831;BME280;10076;52.008;4.708;2022-08-21T02:53:19;101663.13;;;18.22;100.00
19831;BME280;10076;52.008;4.708;2022-08-21T02:55:47;101662.88;;;18.25;100.00
19831;BME280;10076;52.008;4.708;2022-08-21T02:58:15;101661.66;;;18.38;100.00
19831;BME280;10076;52.008;4.708;2022-08-21T03:00:41;101663.50;;;18.17;100.00
19831;BME280;10076;52.008;4.708;2022-08-21T03:03:07;101665.56;;;18.25;100.00
19831;BME280;10076;52.008;4.708;2022-08-21T03:05:34;101659.34;;;18.24;100.00
19831;BME280;10076;52.008;4.708;2022-08-21T03:08:02;101657.97;;;18.30;100.00
19831;BME280;10076;52.008;4.708;2022-08-21T03:10:28;101656.53;;;18.26;100.00
19831;BME280;10076;52.008;4.708;2022-08-21T03:12:53;101653.63;;;18.48;100.00
19831;BME280;10076;52.008;4.708;2022-08-21T03:15:21;101658.09;;;18.28;100.00
19831;BME280;10076;52.008;4.708;2022-08-21T03:17:48;101650.22;;;17.97;100.00
19831;BME280;10076;52.008;4.708;2022-08-21T03:20:16;101647.47;;;18.17;100.00
19831;BME280;10076;52.008;4.708;2022-08-21T03:22:42;101646.38;;;18.20;100.00
19831;BME280;10076;52.008;4.708;2022-08-21T03:25:08;101641.69;;;18.12;100.00
19831;BME280;10076;52.008;4.708;2022-08-21T03:27:34;101629.09;;;18.24;100.00
19831;BME280;10076;52.008;4.708;2022-08-21T03:30:00;101636.88;;;18.06;100.00
19831;BME280;10076;52.008;4.708;2022-08-21T03:32:26;101630.34;;;18.20;100.00
19831;BME280;10076;52.008;4.708;2022-08-21T03:34:52;101638.97;;;17.94;100.00
19831;BME280;10076;52.008;4.708;2022-08-21T03:37:18;101630.97;;;18.03;100.00
19831;BME280;10076;52.008;4.708;2022-08-21T03:39:44;101639.16;;;18.11;100.00
19831;BME280;10076;52.008;4.708;2022-08-21T03:42:10;101640.00;;;18.02;100.00
19831;BME280;10076;52.008;4.708;2022-08-21T03:44:36;101630.63;;;17.87;100.00
19831;BME280;10076;52.008;4.708;2022-08-21T03:47:02;101635.16;;;17.87;100.00
19831;BME280;10076;52.008;4.708;2022-08-21T03:49:27;101630.53;;;17.98;100.00
19831;BME280;10076;52.008;4.708;2022-08-21T03:51:53;101631.59;;;17.86;100.00
19831;BME280;10076;52.008;4.708;2022-08-21T03:54:18;101632.78;;;17.93;100.00
19831;BME280;10076;52.008;4.708;2022-08-21T03:56:44;101628.06;;;17.76;100.00
19831;BME280;10076;52.008;4.708;2022-08-21T03:59:09;101634.81;;;17.80;100.00
19831;BME280;10076;52.008;4.708;2022-08-21T04:01:35;101626.69;;;17.82;100.00
19831;BME280;10076;52.008;4.708;2022-08-21T04:04:01;101633.00;;;17.81;100.00
19831;BME280;10076;52.008;4.708;2022-08-21T04:06:26;101636.03;;;17.67;100.00
19831;BME280;10076;52.008;4.708;2022-08-21T04:08:52;101638.56;;;17.68;100.00
19831;BME280;10076;52.008;4.708;2022-08-21T04:11:19;101641.75;;;17.53;100.00
19831;BME280;10076;52.008;4.708;2022-08-21T04:13:44;101635.19;;;17.66;100.00
19831;BME280;10076;52.008;4.708;2022-08-21T04:16:09;101640.25;;;17.69;100.00
19831;BME280;10076;52.008;4.708;2022-08-21T04:18:35;101642.50;;;17.64;100.00
19831;BME280;10076;52.008;4.708;2022-08-21T04:21:01;101643.88;;;17.59;100.00
19831;BME280;10076;52.008;4.708;2022-08-21T04:23:27;101643.25;;;17.76;100.00
19831;BME280;10076;52.008;4.708;2022-08-21T04:25:54;101634.88;;;17.60;100.00
19831;BME280;10076;52.008;4.708;2022-08-21T04:28:21;101643.56;;;17.52;100.00
19831;BME280;10076;52.008;4.708;2022-08-21T04:30:47;101644.81;;;17.48;100.00
19831;BME280;10076;52.008;4.708;2022-08-21T04:33:12;101646.22;;;17.52;100.00
19831;BME280;10076;52.008;4.708;2022-08-21T04:35:37;101655.16;;;17.42;100.00
19831;BME280;10076;52.008;4.708;2022-08-21T04:38:03;101656.47;;;17.47;100.00
19831;BME280;10076;52.008;4.708;2022-08-21T04:40:28;101659.84;;;17.49;100.00
19831;BME280;10076;52.008;4.708;2022-08-21T04:42:56;101658.59;;;17.53;100.00
19831;BME280;10076;52.008;4.708;2022-08-21T04:45:36;101666.97;;;17.69;100.00
19831;BME280;10076;52.008;4.708;2022-08-21T04:48:04;101663.72;;;17.66;100.00
19831;BME280;10076;52.008;4.708;2022-08-21T04:50:31;101664.50;;;17.77;100.00
19831;BME280;10076;52.008;4.708;2022-08-21T04:53:01;101664.38;;;17.58;100.00
19831;BME280;10076;52.008;4.708;2022-08-21T04:55:26;101667.41;;;17.44;100.00
19831;BME280;10076;52.008;4.708;2022-08-21T04:57:54;101670.03;;;17.35;100.00
19831;BME280;10076;52.008;4.708;2022-08-21T05:00:22;101668.50;;;17.42;100.00
19831;BME280;10076;52.008;4.708;2022-08-21T05:02:48;101671.13;;;17.33;100.00
19831;BME280;10076;52.008;4.708;2022-08-21T05:05:15;101677.53;;;17.50;100.00
19831;BME280;10076;52.008;4.708;2022-08-21T05:07:42;101686.47;;;17.60;100.00
19831;BME280;10076;52.008;4.708;2022-08-21T05:10:08;101677.13;;;17.75;100.00
19831;BME280;10076;52.008;4.708;2022-08-21T05:12:34;101681.25;;;17.79;100.00
19831;BME280;10076;52.008;4.708;2022-08-21T05:14:59;101674.00;;;17.70;100.00
19831;BME280;10076;52.008;4.708;2022-08-21T05:17:25;101667.69;;;17.71;100.00
19831;BME280;10076;52.008;4.708;2022-08-21T05:19:50;101666.81;;;17.61;100.00
19831;BME280;10076;52.008;4.708;2022-08-21T05:22:20;101674.59;;;17.74;100.00
19831;BME280;10076;52.008;4.708;2022-08-21T05:24:45;101675.97;;;17.98;100.00
19831;BME280;10076;52.008;4.708;2022-08-21T05:27:11;101677.81;;;17.98;100.00
19831;BME280;10076;52.008;4.708;2022-08-21T05:29:36;101685.44;;;18.02;100.00
19831;BME280;10076;52.008;4.708;2022-08-21T05:32:08;101682.16;;;18.28;100.00
19831;BME280;10076;52.008;4.708;2022-08-21T05:34:34;101680.34;;;18.29;100.00
19831;BME280;10076;52.008;4.708;2022-08-21T05:36:59;101680.38;;;18.38;100.00
19831;BME280;10076;52.008;4.708;2022-08-21T05:39:24;101684.81;;;18.28;100.00
19831;BME280;10076;52.008;4.708;2022-08-21T05:41:50;101677.03;;;18.16;100.00
19831;BME280;10076;52.008;4.708;2022-08-21T05:44:15;101681.19;;;18.39;100.00
19831;BME280;10076;52.008;4.708;2022-08-21T05:46:40;101682.50;;;18.63;100.00
19831;BME280;10076;52.008;4.708;2022-08-21T05:49:06;101688.88;;;18.72;100.00
19831;BME280;10076;52.008;4.708;2022-08-21T05:51:31;101687.31;;;18.78;100.00
19831;BME280;10076;52.008;4.708;2022-08-21T05:53:56;101689.28;;;18.67;100.00
19831;BME280;10076;52.008;4.708;2022-08-21T05:56:22;101689.00;;;18.70;100.00
19831;BME280;10076;52.008;4.708;2022-08-21T05:58:47;101682.84;;;18.88;100.00
19831;BME280;10076;52.008;4.708;2022-08-21T06:01:12;101682.13;;;18.86;100.00
19831;BME280;10076;52.008;4.708;2022-08-21T06:03:40;101687.06;;;19.19;100.00
19831;BME280;10076;52.008;4.708;2022-08-21T06:06:06;101684.78;;;19.34;100.00
19831;BME280;10076;52.008;4.708;2022-08-21T06:08:31;101680.00;;;19.37;100.00
19831;BME280;10076;52.008;4.708;2022-08-21T06:10:59;101674.94;;;19.34;100.00
19831;BME280;10076;52.008;4.708;2022-08-21T06:13:25;101670.56;;;19.42;100.00
19831;BME280;10076;52.008;4.708;2022-08-21T06:16:04;101676.03;;;19.41;100.00
19831;BME280;10076;52.008;4.708;2022-08-21T06:18:30;101680.53;;;19.50;100.00
19831;BME280;10076;52.008;4.708;2022-08-21T06:20:55;101677.81;;;19.69;100.00
19831;BME280;10076;52.008;4.708;2022-08-21T06:23:21;101671.59;;;19.68;100.00
19831;BME280;10076;52.008;4.708;2022-08-21T06:25:46;101673.03;;;19.63;100.00
19831;BME280;10076;52.008;4.708;2022-08-21T06:28:11;101672.34;;;19.61;100.00
19831;BME280;10076;52.008;4.708;2022-08-21T06:30:38;101683.88;;;19.71;100.00
19831;BME280;10076;52.008;4.708;2022-08-21T06:33:04;101679.97;;;19.92;100.00
19831;BME280;10076;52.008;4.708;2022-08-21T06:35:31;101675.88;;;20.07;100.00
19831;BME280;10076;52.008;4.708;2022-08-21T06:37:57;101677.06;;;19.95;100.00
19831;BME280;10076;52.008;4.708;2022-08-21T06:40:23;101671.63;;;20.05;100.00
19831;BME280;10076;52.008;4.708;2022-08-21T06:42:48;101666.09;;;20.15;100.00
19831;BME280;10076;52.008;4.708;2022-08-21T06:45:14;101663.03;;;20.28;100.00
19831;BME280;10076;52.008;4.708;2022-08-21T06:47:39;101673.41;;;20.40;100.00
19831;BME280;10076;52.008;4.708;2022-08-21T06:50:06;101678.88;;;20.48;100.00
19831;BME280;10076;52.008;4.708;2022-08-21T06:52:36;101667.38;;;20.56;100.00
19831;BME280;10076;52.008;4.708;2022-08-21T06:55:02;101671.59;;;20.58;100.00
19831;BME280;10076;52.008;4.708;2022-08-21T06:57:27;101666.69;;;20.81;100.00
19831;BME280;10076;52.008;4.708;2022-08-21T06:59:53;101668.44;;;21.07;100.00
19831;BME280;10076;52.008;4.708;2022-08-21T07:02:18;101664.44;;;20.76;100.00
19831;BME280;10076;52.008;4.708;2022-08-21T07:04:43;101664.16;;;20.79;100.00
19831;BME280;10076;52.008;4.708;2022-08-21T07:07:09;101666.13;;;20.77;100.00
19831;BME280;10076;52.008;4.708;2022-08-21T07:09:34;101665.44;;;20.75;100.00
19831;BME280;10076;52.008;4.708;2022-08-21T07:12:00;101667.22;;;20.84;100.00
19831;BME280;10076;52.008;4.708;2022-08-21T07:14:25;101668.22;;;20.83;100.00
19831;BME280;10076;52.008;4.708;2022-08-21T07:16:51;101669.06;;;21.01;100.00
19831;BME280;10076;52.008;4.708;2022-08-21T07:19:17;101676.13;;;21.02;100.00
19831;BME280;10076;52.008;4.708;2022-08-21T07:21:44;101676.78;;;21.04;100.00
19831;BME280;10076;52.008;4.708;2022-08-21T07:24:09;101677.25;;;21.17;100.00
19831;BME280;10076;52.008;4.708;2022-08-21T07:26:35;101680.47;;;21.20;100.00
19831;BME280;10076;52.008;4.708;2022-08-21T07:29:01;101682.03;;;21.05;100.00
19831;BME280;10076;52.008;4.708;2022-08-21T07:31:28;101685.69;;;21.22;100.00
19831;BME280;10076;52.008;4.708;2022-08-21T07:33:53;101684.59;;;21.32;100.00
19831;BME280;10076;52.008;4.708;2022-08-21T07:36:19;101679.13;;;21.42;100.00
19831;BME280;10076;52.008;4.708;2022-08-21T07:38:45;101674.50;;;21.52;100.00
19831;BME280;10076;52.008;4.708;2022-08-21T07:41:17;101670.94;;;21.68;100.00
19831;BME280;10076;52.008;4.708;2022-08-21T07:43:43;101665.97;;;21.81;100.00
19831;BME280;10076;52.008;4.708;2022-08-21T07:46:09;101673.44;;;21.95;100.00
19831;BME280;10076;52.008;4.708;2022-08-21T07:48:35;101670.03;;;21.85;100.00
19831;BME280;10076;52.008;4.708;2022-08-21T07:51:03;101673.47;;;22.03;100.00
19831;BME280;10076;52.008;4.708;2022-08-21T07:53:30;101670.78;;;22.03;100.00
19831;BME280;10076;52.008;4.708;2022-08-21T07:55:58;101673.06;;;22.23;100.00
19831;BME280;10076;52.008;4.708;2022-08-21T07:58:24;101675.06;;;22.14;100.00
19831;BME280;10076;52.008;4.708;2022-08-21T08:00:49;101671.38;;;22.23;100.00
19831;BME280;10076;52.008;4.708;2022-08-21T08:03:14;101678.97;;;22.27;100.00
19831;BME280;10076;52.008;4.708;2022-08-21T08:05:40;101679.78;;;22.53;100.00
19831;BME280;10076;52.008;4.708;2022-08-21T08:08:05;101680.78;;;22.60;100.00
19831;BME280;10076;52.008;4.708;2022-08-21T08:10:31;101676.91;;;22.62;100.00
19831;BME280;10076;52.008;4.708;2022-08-21T08:12:56;101676.97;;;22.86;100.00
19831;BME280;10076;52.008;4.708;2022-08-21T08:15:23;101677.66;;;22.96;100.00
19831;BME280;10076;52.008;4.708;2022-08-21T08:17:49;101678.03;;;23.09;100.00
19831;BME280;10076;52.008;4.708;2022-08-21T08:20:16;101674.81;;;23.29;100.00
19831;BME280;10076;52.008;4.708;2022-08-21T08:22:44;101672.16;;;23.45;100.00
19831;BME280;10076;52.008;4.708;2022-08-21T08:25:11;101662.34;;;23.28;100.00
19831;BME280;10076;52.008;4.708;2022-08-21T08:27:37;101668.09;;;23.49;100.00
19831;BME280;10076;52.008;4.708;2022-08-21T08:30:04;101662.50;;;23.59;100.00
19831;BME280;10076;52.008;4.708;2022-08-21T08:32:30;101657.09;;;23.82;100.00
19831;BME280;10076;52.008;4.708;2022-08-21T08:34:55;101668.69;;;23.91;100.00
19831;BME280;10076;52.008;4.708;2022-08-21T08:37:20;101652.44;;;24.07;100.00
19831;BME280;10076;52.008;4.708;2022-08-21T08:39:46;101654.78;;;24.10;100.00
19831;BME280;10076;52.008;4.708;2022-08-21T08:42:15;101656.25;;;24.20;100.00
19831;BME280;10076;52.008;4.708;2022-08-21T08:44:42;101650.97;;;24.42;100.00
19831;BME280;10076;52.008;4.708;2022-08-21T08:47:10;101649.84;;;24.59;100.00
19831;BME280;10076;52.008;4.708;2022-08-21T08:49:48;101651.75;;;24.73;100.00
19831;BME280;10076;52.008;4.708;2022-08-21T08:52:22;101650.84;;;24.58;100.00
19831;BME280;10076;52.008;4.708;2022-08-21T08:57:41;101643.66;;;24.51;100.00
19831;BME280;10076;52.008;4.708;2022-08-21T09:00:10;101648.28;;;24.87;100.00
19831;BME280;10076;52.008;4.708;2022-08-21T09:02:39;101650.19;;;25.09;100.00
19831;BME280;10076;52.008;4.708;2022-08-21T09:05:06;101650.19;;;25.09;100.00
19831;BME280;10076;52.008;4.708;2022-08-21T09:08:00;101654.84;;;25.15;100.00
19831;BME280;10076;52.008;4.708;2022-08-21T09:10:46;101651.13;;;25.38;100.00
19831;BME280;10076;52.008;4.708;2022-08-21T09:13:20;101645.47;;;25.77;100.00
19831;BME280;10076;52.008;4.708;2022-08-21T09:16:08;101656.88;;;26.15;100.00
19831;BME280;10076;52.008;4.708;2022-08-21T09:21:23;101651.13;;;26.53;100.00
19831;BME280;10076;52.008;4.708;2022-08-21T09:24:02;101647.16;;;26.70;100.00
19831;BME280;10076;52.008;4.708;2022-08-21T09:29:37;101647.38;;;26.54;100.00
19831;BME280;10076;52.008;4.708;2022-08-21T09:32:24;101646.13;;;26.71;100.00
19831;BME280;10076;52.008;4.708;2022-08-21T09:35:10;101643.69;;;27.45;100.00
19831;BME280;10076;52.008;4.708;2022-08-21T09:38:02;101652.41;;;27.89;100.00
19831;BME280;10076;52.008;4.708;2022-08-21T09:43:25;101645.81;;;27.50;100.00
19831;BME280;10076;52.008;4.708;2022-08-21T09:46:11;101659.38;;;27.71;100.00
19831;BME280;10076;52.008;4.708;2022-08-21T09:48:43;101654.09;;;27.42;100.00
19831;BME280;10076;52.008;4.708;2022-08-21T09:51:17;101641.38;;;27.63;100.00
19831;BME280;10076;52.008;4.708;2022-08-21T09:53:48;101647.81;;;28.89;100.00
19831;BME280;10076;52.008;4.708;2022-08-21T09:56:21;101645.34;;;29.59;100.00
19831;BME280;10076;52.008;4.708;2022-08-21T09:59:15;101652.28;;;29.68;100.00
19831;BME280;10076;52.008;4.708;2022-08-21T10:01:49;101647.81;;;29.86;100.00
19831;BME280;10076;52.008;4.708;2022-08-21T10:04:20;101651.25;;;30.45;100.00
19831;BME280;10076;52.008;4.708;2022-08-21T10:06:46;101647.03;;;32.08;97.95
19831;BME280;10076;52.008;4.708;2022-08-21T10:09:15;101661.38;;;32.57;92.33
19831;BME280;10076;52.008;4.708;2022-08-21T10:11:47;101659.81;;;32.79;89.72
19831;BME280;10076;52.008;4.708;2022-08-21T10:17:05;101661.53;;;31.42;100.00
19831;BME280;10076;52.008;4.708;2022-08-21T10:36:00;101655.78;;;28.91;100.00
19831;BME280;10076;52.008;4.708;2022-08-21T10:39:00;101641.59;;;28.02;100.00
19831;BME280;10076;52.008;4.708;2022-08-21T10:44:49;101632.22;;;27.71;100.00
19831;BME280;10076;52.008;4.708;2022-08-21T10:47:30;101631.16;;;27.99;100.00
19831;BME280;10076;52.008;4.708;2022-08-21T10:55:25;101640.66;;;27.82;100.00
19831;BME280;10076;52.008;4.708;2022-08-21T10:57:58;101632.50;;;27.82;100.00
19831;BME280;10076;52.008;4.708;2022-08-21T11:00:29;101622.59;;;27.68;100.00
19831;BME280;10076;52.008;4.708;2022-08-21T11:05:42;101635.88;;;27.57;100.00
19831;BME280;10076;52.008;4.708;2022-08-21T11:08:33;101632.25;;;27.23;100.00
19831;BME280;10076;52.008;4.708;2022-08-21T11:11:13;101637.91;;;27.00;100.00
19831;BME280;10076;52.008;4.708;2022-08-21T11:13:44;101638.88;;;26.78;100.00
19831;BME280;10076;52.008;4.708;2022-08-21T11:16:24;101634.94;;;26.81;100.00
19831;BME280;10076;52.008;4.708;2022-08-21T11:18:57;101637.81;;;26.73;100.00
19831;BME280;10076;52.008;4.708;2022-08-21T11:21:43;101649.41;;;26.67;100.00
19831;BME280;10076;52.008;4.708;2022-08-21T11:24:17;101631.47;;;26.87;100.00
19831;BME280;10076;52.008;4.708;2022-08-21T11:29:28;101645.91;;;30.12;98.30
19831;BME280;10076;52.008;4.708;2022-08-21T11:37:48;101640.19;;;28.65;100.00
19831;BME280;10076;52.008;4.708;2022-08-21T11:43:21;101649.19;;;27.52;100.00
19831;BME280;10076;52.008;4.708;2022-08-21T11:45:56;101648.41;;;27.30;100.00
19831;BME280;10076;52.008;4.708;2022-08-21T11:51:13;101649.06;;;27.12;100.00
19831;BME280;10076;52.008;4.708;2022-08-21T11:56:37;101643.94;;;26.81;100.00
19831;BME280;10076;52.008;4.708;2022-08-21T11:59:17;101657.28;;;26.62;100.00
19831;BME280;10076;52.008;4.708;2022-08-21T12:01:46;101652.88;;;26.61;100.00
19831;BME280;10076;52.008;4.708;2022-08-21T12:04:35;101657.78;;;26.51;100.00
19831;BME280;10076;52.008;4.708;2022-08-21T12:07:17;101647.19;;;27.60;100.00
19831;BME280;10076;52.008;4.708;2022-08-21T12:09:53;101651.75;;;28.74;100.00
19831;BME280;10076;52.008;4.708;2022-08-21T12:12:28;101656.25;;;30.85;98.04
19831;BME280;10076;52.008;4.708;2022-08-21T12:28:31;101672.06;;;36.46;55.93
19831;BME280;10076;52.008;4.708;2022-08-21T12:30:56;101661.16;;;34.98;56.59
19831;BME280;10076;52.008;4.708;2022-08-21T12:33:34;101661.34;;;33.79;62.37
19831;BME280;10076;52.008;4.708;2022-08-21T12:36:06;101663.34;;;33.83;64.27
19831;BME280;10076;52.008;4.708;2022-08-21T12:38:46;101673.00;;;36.13;56.39
19831;BME280;10076;52.008;4.708;2022-08-21T12:41:18;101679.53;;;37.50;52.69
19831;BME280;10076;52.008;4.708;2022-08-21T12:43:51;101681.47;;;38.27;47.97
19831;BME280;10076;52.008;4.708;2022-08-21T12:46:22;101678.31;;;38.60;45.17
19831;BME280;10076;52.008;4.708;2022-08-21T12:48:54;101678.78;;;38.47;44.41
19831;BME280;10076;52.008;4.708;2022-08-21T12:51:29;101681.50;;;39.38;42.13
19831;BME280;10076;52.008;4.708;2022-08-21T12:53:58;101674.03;;;39.73;40.25
19831;BME280;10076;52.008;4.708;2022-08-21T12:56:31;101675.41;;;39.16;40.45
19831;BME280;10076;52.008;4.708;2022-08-21T12:59:04;101681.78;;;39.42;41.13
19831;BME280;10076;52.008;4.708;2022-08-21T13:03:58;101680.41;;;39.54;40.37
19831;BME280;10076;52.008;4.708;2022-08-21T13:06:28;101673.06;;;38.64;42.09
19831;BME280;10076;52.008;4.708;2022-08-21T13:08:57;101676.19;;;37.43;44.20
19831;BME280;10076;52.008;4.708;2022-08-21T13:11:24;101656.84;;;36.00;47.24
19831;BME280;10076;52.008;4.708;2022-08-21T13:13:52;101656.72;;;35.25;50.00
19831;BME280;10076;52.008;4.708;2022-08-21T13:16:22;101656.22;;;35.77;48.07
19831;BME280;10076;52.008;4.708;2022-08-21T13:19:06;101661.31;;;34.25;50.47
19831;BME280;10076;52.008;4.708;2022-08-21T13:21:42;101659.84;;;32.43;58.98
19831;BME280;10076;52.008;4.708;2022-08-21T13:24:20;101656.19;;;30.98;69.36
19831;BME280;10076;52.008;4.708;2022-08-21T13:26:47;101660.75;;;30.23;75.92
19831;BME280;10076;52.008;4.708;2022-08-21T13:29:16;101662.09;;;30.01;81.08
19831;BME280;10076;52.008;4.708;2022-08-21T13:31:48;101658.94;;;29.27;85.68
19831;BME280;10076;52.008;4.708;2022-08-21T13:34:14;101658.28;;;28.99;89.65
19831;BME280;10076;52.008;4.708;2022-08-21T13:36:41;101657.72;;;29.16;91.29
19831;BME280;10076;52.008;4.708;2022-08-21T13:39:11;101661.88;;;29.25;91.70
19831;BME280;10076;52.008;4.708;2022-08-21T13:41:39;101647.88;;;29.28;89.07
19831;BME280;10076;52.008;4.708;2022-08-21T13:44:17;101652.25;;;29.16;90.89
19831;BME280;10076;52.008;4.708;2022-08-21T13:46:44;101649.38;;;28.58;92.68
19831;BME280;10076;52.008;4.708;2022-08-21T13:49:10;101659.00;;;28.54;96.47
19831;BME280;10076;52.008;4.708;2022-08-21T13:51:38;101649.50;;;28.31;95.97
19831;BME280;10076;52.008;4.708;2022-08-21T13:54:16;101653.66;;;28.27;99.03
19831;BME280;10076;52.008;4.708;2022-08-21T13:56:46;101643.75;;;27.79;99.14
19831;BME280;10076;52.008;4.708;2022-08-21T13:59:11;101648.50;;;27.71;100.00
19831;BME280;10076;52.008;4.708;2022-08-21T14:01:52;101653.91;;;27.64;100.00
19831;BME280;10076;52.008;4.708;2022-08-21T14:04:45;101657.34;;;27.52;99.93
19831;BME280;10076;52.008;4.708;2022-08-21T14:07:17;101656.91;;;27.27;100.00